Time,TemperatureF,DewpointF,PressureIn,WindDirection,WindDirectionDegrees,WindSpeedMPH,WindSpeedGustMPH,Humidity,HourlyPrecipIn,Conditions,Clouds,dailyrainin,SoftwareType,DateUTC
2013-01-20 00:00:00,26.8,15.1,30.02,WNW,291,14.0,15.0,61,0.00,,,0.00,Wunderground v.1.15,2013-01-20 06:00:00,
2013-01-20 00:10:00,26.0,15.1,30.03,West,273,13.0,16.0,63,0.00,,,0.00,Wunderground v.1.15,2013-01-20 06:10:00,
2013-01-20 00:20:00,25.4,13.1,30.05,West,278,16.0,16.0,59,0.00,,,0.00,Wunderground v.1.15,2013-01-20 06:20:00,
2013-01-20 00:25:00,25.0,12.7,30.06,West,262,16.0,16.0,59,0.00,,,0.00,Wunderground v.1.15,2013-01-20 06:25:00,
2013-01-20 00:35:00,24.4,12.5,30.07,NW,313,16.0,24.0,60,0.00,,,0.00,Wunderground v.1.15,2013-01-20 06:35:00,
2013-01-20 00:40:00,24.1,11.8,30.06,WNW,288,17.0,18.0,59,0.00,,,0.00,Wunderground v.1.15,2013-01-20 06:40:00,
2013-01-20 00:50:00,23.7,11.4,30.07,WNW,289,19.0,19.0,59,0.00,,,0.00,Wunderground v.1.15,2013-01-20 06:50:00,
2013-01-20 01:00:00,23.5,12.4,30.07,WNW,300,16.0,16.0,62,0.00,,,0.00,Wunderground v.1.15,2013-01-20 07:00:00,
2013-01-20 01:10:00,22.9,12.5,30.08,West,266,12.0,12.0,64,0.00,,,0.00,Wunderground v.1.15,2013-01-20 07:10:00,
2013-01-20 01:15:00,22.4,12.4,30.09,WNW,284,13.0,21.0,65,0.00,,,0.00,Wunderground v.1.15,2013-01-20 07:15:00,
2013-01-20 01:25:00,22.0,12.0,30.09,WNW,300,16.0,16.0,65,0.00,,,0.00,Wunderground v.1.15,2013-01-20 07:25:00,
2013-01-20 01:30:00,21.7,11.7,30.10,WNW,283,15.0,15.0,65,0.00,,,0.00,Wunderground v.1.15,2013-01-20 07:30:00,
2013-01-20 01:40:00,21.1,10.5,30.10,West,270,15.0,15.0,63,0.00,,,0.00,Wunderground v.1.15,2013-01-20 07:40:00,
2013-01-20 01:50:00,20.6,10.0,30.11,WNW,286,14.0,15.0,63,0.00,,,0.00,Wunderground v.1.15,2013-01-20 07:50:00,
2013-01-20 02:00:00,20.3,9.7,30.11,WNW,297,13.0,16.0,63,0.00,,,0.00,Wunderground v.1.15,2013-01-20 08:00:00,
2013-01-20 02:10:00,20.1,10.2,30.12,West,278,12.0,12.0,65,0.00,,,0.00,Wunderground v.1.15,2013-01-20 08:10:00,
2013-01-20 02:20:00,19.8,10.6,30.13,NW,311,12.0,12.0,67,0.00,,,0.00,Wunderground v.1.15,2013-01-20 08:20:00,
2013-01-20 02:30:00,19.6,10.1,30.14,West,267,14.0,14.0,66,0.00,,,0.00,Wunderground v.1.15,2013-01-20 08:30:00,
2013-01-20 02:35:00,19.4,9.5,30.14,West,281,16.0,16.0,65,0.00,,,0.00,Wunderground v.1.15,2013-01-20 08:35:00,
2013-01-20 02:45:00,19.0,9.8,30.15,WNW,297,15.0,17.0,67,0.00,,,0.00,Wunderground v.1.15,2013-01-20 08:45:00,
2013-01-20 02:50:00,18.9,9.7,30.15,WNW,294,14.0,14.0,67,0.00,,,0.00,Wunderground v.1.15,2013-01-20 08:50:00,
2013-01-20 03:00:00,18.5,10.0,30.15,WNW,293,11.0,14.0,69,0.00,,,0.00,Wunderground v.1.15,2013-01-20 09:00:00,
2013-01-20 03:10:00,18.0,9.2,30.16,West,280,15.0,15.0,68,0.00,,,0.00,Wunderground v.1.15,2013-01-20 09:10:00,
2013-01-20 03:20:00,17.6,8.8,30.17,WNW,289,15.0,16.0,68,0.00,,,0.00,Wunderground v.1.15,2013-01-20 09:20:00,
2013-01-20 03:25:00,17.4,9.6,30.17,West,281,15.0,16.0,71,0.00,,,0.00,Wunderground v.1.15,2013-01-20 09:25:00,
2013-01-20 03:35:00,17.2,9.4,30.17,WNW,290,13.0,13.0,71,0.00,,,0.00,Wunderground v.1.15,2013-01-20 09:35:00,
2013-01-20 03:40:00,17.0,8.9,30.17,West,277,13.0,13.0,70,0.00,,,0.00,Wunderground v.1.15,2013-01-20 09:40:00,
2013-01-20 03:50:00,16.7,8.3,30.18,WNW,287,15.0,20.0,69,0.00,,,0.00,Wunderground v.1.15,2013-01-20 09:50:00,
2013-01-20 03:55:00,16.5,7.8,30.18,West,278,16.0,20.0,68,0.00,,,0.00,Wunderground v.1.15,2013-01-20 09:55:00,
2013-01-20 04:00:00,16.3,7.6,30.18,NW,326,16.0,16.0,68,0.00,,,0.00,Wunderground v.1.15,2013-01-20 10:00:00,
2013-01-20 04:10:00,16.2,7.8,30.19,NW,308,13.0,18.0,69,0.00,,,0.00,Wunderground v.1.15,2013-01-20 10:10:00,
2013-01-20 04:15:00,16.0,7.6,30.20,WNW,289,12.0,18.0,69,0.00,,,0.00,Wunderground v.1.15,2013-01-20 10:15:00,
2013-01-20 04:25:00,15.7,7.6,30.20,WNW,290,13.0,16.0,70,0.00,,,0.00,Wunderground v.1.15,2013-01-20 10:25:00,
2013-01-20 04:30:00,15.5,7.8,30.20,WNW,287,12.0,12.0,71,0.00,,,0.00,Wunderground v.1.15,2013-01-20 10:30:00,
2013-01-20 04:40:00,15.3,6.9,30.22,West,281,12.0,16.0,69,0.00,,,0.00,Wunderground v.1.15,2013-01-20 10:40:00,
2013-01-20 04:50:00,15.1,7.1,30.22,WNW,290,12.0,12.0,70,0.00,,,0.00,Wunderground v.1.15,2013-01-20 10:50:00,
2013-01-20 04:55:00,15.0,7.0,30.23,West,278,10.0,12.0,70,0.00,,,0.00,Wunderground v.1.15,2013-01-20 10:55:00,
2013-01-20 05:00:00,14.9,6.9,30.24,WNW,283,10.0,10.0,70,0.00,,,0.00,Wunderground v.1.15,2013-01-20 11:00:00,
2013-01-20 05:10:00,14.7,7.0,30.25,West,274,9.0,9.0,71,0.00,,,0.00,Wunderground v.1.15,2013-01-20 11:10:00,
2013-01-20 05:15:00,14.6,6.9,30.24,West,266,8.0,9.0,71,0.00,,,0.00,Wunderground v.1.15,2013-01-20 11:15:00,
2013-01-20 05:25:00,14.5,6.8,30.24,WNW,288,11.0,11.0,71,0.00,,,0.00,Wunderground v.1.15,2013-01-20 11:25:00,
2013-01-20 05:30:00,14.5,7.4,30.24,NW,304,10.0,10.0,73,0.00,,,0.00,Wunderground v.1.15,2013-01-20 11:30:00,
2013-01-20 05:40:00,14.2,7.4,30.25,WNW,288,8.0,11.0,74,0.00,,,0.00,Wunderground v.1.15,2013-01-20 11:40:00,
2013-01-20 05:45:00,14.0,6.9,30.25,WNW,284,10.0,11.0,73,0.00,,,0.00,Wunderground v.1.15,2013-01-20 11:45:00,
2013-01-20 05:55:00,13.8,6.7,30.26,West,276,9.0,11.0,73,0.00,,,0.00,Wunderground v.1.15,2013-01-20 11:55:00,
2013-01-20 06:00:00,13.7,6.6,30.26,NW,321,10.0,10.0,73,0.00,,,0.00,Wunderground v.1.15,2013-01-20 12:00:00,
2013-01-20 06:10:00,13.4,5.7,30.26,WNW,302,10.0,13.0,71,0.00,,,0.00,Wunderground v.1.15,2013-01-20 12:10:00,
2013-01-20 06:15:00,13.4,5.4,30.27,WNW,301,10.0,13.0,70,0.00,,,0.00,Wunderground v.1.15,2013-01-20 12:15:00,
2013-01-20 06:25:00,13.3,5.6,30.27,WNW,298,9.0,11.0,71,0.00,,,0.00,Wunderground v.1.15,2013-01-20 12:25:00,
2013-01-20 06:30:00,13.2,5.9,30.27,WNW,291,8.0,8.0,72,0.00,,,0.00,Wunderground v.1.15,2013-01-20 12:30:00,
2013-01-20 06:40:00,13.1,6.4,30.28,WNW,286,7.0,8.0,74,0.00,,,0.00,Wunderground v.1.15,2013-01-20 12:40:00,
2013-01-20 06:45:00,13.0,6.3,30.28,West,281,8.0,9.0,74,0.00,,,0.00,Wunderground v.1.15,2013-01-20 12:45:00,
2013-01-20 06:55:00,12.8,5.8,30.29,NW,308,8.0,10.0,73,0.00,,,0.00,Wunderground v.1.15,2013-01-20 12:55:00,
2013-01-20 07:00:00,12.6,5.6,30.29,NW,311,8.0,8.0,73,0.00,,,0.00,Wunderground v.1.15,2013-01-20 13:00:00,
2013-01-20 07:10:00,12.5,5.8,30.30,WNW,300,6.0,8.0,74,0.00,,,0.00,Wunderground v.1.15,2013-01-20 13:10:00,
2013-01-20 07:15:00,12.4,6.0,30.30,West,281,7.0,8.0,75,0.00,,,0.00,Wunderground v.1.15,2013-01-20 13:15:00,
2013-01-20 07:25:00,12.4,5.7,30.30,WNW,301,9.0,10.0,74,0.00,,,0.00,Wunderground v.1.15,2013-01-20 13:25:00,
2013-01-20 07:35:00,12.4,5.7,30.29,West,271,8.0,9.0,74,0.00,,,0.00,Wunderground v.1.15,2013-01-20 13:35:00,
2013-01-20 07:45:00,12.4,5.7,30.30,WNW,290,8.0,9.0,74,0.00,,,0.00,Wunderground v.1.15,2013-01-20 13:45:00,
2013-01-20 07:55:00,12.5,5.2,30.31,WNW,298,9.0,10.0,72,0.00,,,0.00,Wunderground v.1.15,2013-01-20 13:55:00,
2013-01-20 08:00:00,12.5,5.2,30.31,WNW,287,9.0,10.0,72,0.00,,,0.00,Wunderground v.1.15,2013-01-20 14:00:00,
2013-01-20 08:05:00,12.5,5.5,30.31,WNW,295,9.0,10.0,73,0.00,,,0.00,Wunderground v.1.15,2013-01-20 14:05:00,
2013-01-20 08:15:00,12.8,5.5,30.31,WNW,297,9.0,13.0,72,0.00,,,0.00,Wunderground v.1.15,2013-01-20 14:15:00,
2013-01-20 08:20:00,12.9,5.9,30.31,WNW,295,9.0,9.0,73,0.00,,,0.00,Wunderground v.1.15,2013-01-20 14:20:00,
2013-01-20 08:30:00,13.1,5.5,30.32,NW,308,7.0,11.0,71,0.00,,,0.00,Wunderground v.1.15,2013-01-20 14:30:00,
2013-01-20 08:35:00,13.1,5.5,30.32,NW,304,8.0,11.0,71,0.00,,,0.00,Wunderground v.1.15,2013-01-20 14:35:00,
2013-01-20 08:45:00,12.7,5.1,30.32,NW,304,9.0,10.0,71,0.00,,,0.00,Wunderground v.1.15,2013-01-20 14:45:00,
2013-01-20 08:55:00,13.1,5.8,30.32,WNW,298,9.0,10.0,72,0.00,,,0.00,Wunderground v.1.15,2013-01-20 14:55:00,
2013-01-20 09:00:00,13.4,6.1,30.33,WNW,300,9.0,9.0,72,0.00,,,0.00,Wunderground v.1.15,2013-01-20 15:00:00,
2013-01-20 09:10:00,13.9,5.9,30.33,NW,315,9.0,10.0,70,0.00,,,0.00,Wunderground v.1.15,2013-01-20 15:10:00,
2013-01-20 09:20:00,14.6,6.6,30.33,WNW,300,8.0,9.0,70,0.00,,,0.00,Wunderground v.1.15,2013-01-20 15:20:00,
2013-01-20 09:25:00,14.6,6.9,30.33,NW,318,8.0,9.0,71,0.00,,,0.00,Wunderground v.1.15,2013-01-20 15:25:00,
2013-01-20 09:35:00,14.7,7.0,30.33,NW,308,10.0,10.0,71,0.00,,,0.00,Wunderground v.1.15,2013-01-20 15:35:00,
2013-01-20 09:40:00,14.6,6.6,30.33,NW,311,10.0,10.0,70,0.00,,,0.00,Wunderground v.1.15,2013-01-20 15:40:00,
2013-01-20 09:50:00,14.6,6.6,30.33,NW,310,7.0,7.0,70,0.00,,,0.00,Wunderground v.1.15,2013-01-20 15:50:00,
2013-01-20 09:55:00,15.2,7.8,30.33,WNW,300,7.0,7.0,72,0.00,,,0.00,Wunderground v.1.15,2013-01-20 15:55:00,
2013-01-20 10:00:00,15.1,7.1,30.32,NW,310,8.0,8.0,70,0.00,,,0.00,Wunderground v.1.15,2013-01-20 16:00:00,
2013-01-20 10:10:00,15.5,6.8,30.32,WNW,294,6.0,8.0,68,0.00,,,0.00,Wunderground v.1.15,2013-01-20 16:10:00,
2013-01-20 10:15:00,15.8,7.7,30.32,NNW,329,7.0,9.0,70,0.00,,,0.00,Wunderground v.1.15,2013-01-20 16:15:00,
2013-01-20 10:25:00,16.0,7.3,30.32,WNW,283,6.0,7.0,68,0.00,,,0.00,Wunderground v.1.15,2013-01-20 16:25:00,
2013-01-20 10:30:00,16.2,7.2,30.32,WNW,302,6.0,6.0,67,0.00,,,0.00,Wunderground v.1.15,2013-01-20 16:30:00,
2013-01-20 10:40:00,16.2,6.8,30.32,WNW,295,7.0,7.0,66,0.00,,,0.00,Wunderground v.1.15,2013-01-20 16:40:00,
2013-01-20 10:45:00,16.7,8.0,30.32,NW,308,7.0,8.0,68,0.00,,,0.00,Wunderground v.1.15,2013-01-20 16:45:00,
2013-01-20 10:55:00,16.7,8.3,30.33,WNW,288,7.0,8.0,69,0.00,,,0.00,Wunderground v.1.15,2013-01-20 16:55:00,
2013-01-20 11:00:00,17.2,8.4,30.33,NW,307,7.0,7.0,68,0.00,,,0.00,Wunderground v.1.15,2013-01-20 17:00:00,
2013-01-20 11:10:00,17.0,7.9,30.33,WNW,298,8.0,9.0,67,0.00,,,0.00,Wunderground v.1.15,2013-01-20 17:10:00,
2013-01-20 11:15:00,17.0,7.9,30.33,WNW,297,8.0,9.0,67,0.00,,,0.00,Wunderground v.1.15,2013-01-20 17:15:00,
2013-01-20 11:25:00,16.9,7.8,30.33,WNW,295,8.0,10.0,67,0.00,,,0.00,Wunderground v.1.15,2013-01-20 17:25:00,
2013-01-20 11:35:00,17.2,7.1,30.33,NW,319,7.0,8.0,64,0.00,,,0.00,Wunderground v.1.15,2013-01-20 17:35:00,
2013-01-20 11:45:00,17.4,8.0,30.32,NW,311,7.0,9.0,66,0.00,,,0.00,Wunderground v.1.15,2013-01-20 17:45:00,
2013-01-20 11:50:00,17.4,7.3,30.31,WNW,295,8.0,8.0,64,0.00,,,0.00,Wunderground v.1.15,2013-01-20 17:50:00,
2013-01-20 12:00:00,17.5,7.4,30.31,NW,305,8.0,8.0,64,0.00,,,0.00,Wunderground v.1.15,2013-01-20 18:00:00,
2013-01-20 12:05:00,17.6,7.5,30.31,WNW,287,8.0,8.0,64,0.00,,,0.00,Wunderground v.1.15,2013-01-20 18:05:00,
2013-01-20 12:15:00,17.9,8.1,30.30,NW,312,7.0,9.0,65,0.00,,,0.00,Wunderground v.1.15,2013-01-20 18:15:00,
2013-01-20 12:20:00,17.8,7.7,30.30,West,281,7.0,7.0,64,0.00,,,0.00,Wunderground v.1.15,2013-01-20 18:20:00,
2013-01-20 12:30:00,18.1,8.3,30.30,WNW,298,6.0,6.0,65,0.00,,,0.00,Wunderground v.1.15,2013-01-20 18:30:00,
2013-01-20 12:40:00,18.5,9.0,30.30,West,278,7.0,7.0,66,0.00,,,0.00,Wunderground v.1.15,2013-01-20 18:40:00,
2013-01-20 12:50:00,18.4,7.9,30.30,WNW,286,8.0,10.0,63,0.00,,,0.00,Wunderground v.1.15,2013-01-20 18:50:00,
2013-01-20 13:00:00,18.5,7.6,30.30,WNW,293,8.0,11.0,62,0.00,,,0.00,Wunderground v.1.15,2013-01-20 19:00:00,
2013-01-20 13:10:00,19.0,9.2,30.30,WNW,295,7.0,9.0,65,0.00,,,0.00,Wunderground v.1.15,2013-01-20 19:10:00,
2013-01-20 13:20:00,19.0,8.5,30.30,WNW,284,7.0,7.0,63,0.00,,,0.00,Wunderground v.1.15,2013-01-20 19:20:00,
2013-01-20 13:25:00,19.0,8.5,30.30,West,260,7.0,9.0,63,0.00,,,0.00,Wunderground v.1.15,2013-01-20 19:25:00,
2013-01-20 13:35:00,18.7,8.2,30.29,WNW,284,7.0,7.0,63,0.00,,,0.00,Wunderground v.1.15,2013-01-20 19:35:00,
2013-01-20 13:40:00,18.9,8.0,30.29,WNW,290,7.0,9.0,62,0.00,,,0.00,Wunderground v.1.15,2013-01-20 19:40:00,
2013-01-20 13:50:00,18.7,7.8,30.29,WNW,290,7.0,8.0,62,0.00,,,0.00,Wunderground v.1.15,2013-01-20 19:50:00,
2013-01-20 14:00:00,19.1,7.8,30.29,West,274,7.0,7.0,61,0.00,,,0.00,Wunderground v.1.15,2013-01-20 20:00:00,
2013-01-20 14:10:00,19.6,8.3,30.29,West,277,6.0,6.0,61,0.00,,,0.00,Wunderground v.1.15,2013-01-20 20:10:00,
2013-01-20 14:15:00,19.4,7.4,30.30,WNW,285,6.0,6.0,59,0.00,,,0.00,Wunderground v.1.15,2013-01-20 20:15:00,
2013-01-20 14:25:00,19.5,8.2,30.29,WNW,300,7.0,7.0,61,0.00,,,0.00,Wunderground v.1.15,2013-01-20 20:25:00,
2013-01-20 14:30:00,19.5,8.2,30.29,WNW,301,6.0,6.0,61,0.00,,,0.00,Wunderground v.1.15,2013-01-20 20:30:00,
2013-01-20 14:40:00,19.5,7.1,30.30,West,274,7.0,7.0,58,0.00,,,0.00,Wunderground v.1.15,2013-01-20 20:40:00,
2013-01-20 14:45:00,19.5,7.9,30.30,WNW,297,7.0,8.0,60,0.00,,,0.00,Wunderground v.1.15,2013-01-20 20:45:00,
2013-01-20 14:55:00,19.3,7.3,30.30,WNW,291,7.0,7.0,59,0.00,,,0.00,Wunderground v.1.15,2013-01-20 20:55:00,
2013-01-20 15:00:00,19.2,7.9,30.30,West,281,7.0,7.0,61,0.00,,,0.00,Wunderground v.1.15,2013-01-20 21:00:00,
2013-01-20 15:10:00,19.2,7.2,30.30,WNW,298,7.0,7.0,59,0.00,,,0.00,Wunderground v.1.15,2013-01-20 21:10:00,
2013-01-20 15:20:00,19.3,8.0,30.29,WNW,290,6.0,6.0,61,0.00,,,0.00,Wunderground v.1.15,2013-01-20 21:20:00,
2013-01-20 15:30:00,19.1,7.8,30.30,WSW,250,6.0,6.0,61,0.00,,,0.00,Wunderground v.1.15,2013-01-20 21:30:00,
2013-01-20 15:40:00,19.1,8.2,30.30,WNW,282,7.0,7.0,62,0.00,,,0.00,Wunderground v.1.15,2013-01-20 21:40:00,
2013-01-20 15:45:00,19.1,8.2,30.30,West,260,7.0,8.0,62,0.00,,,0.00,Wunderground v.1.15,2013-01-20 21:45:00,
2013-01-20 15:55:00,19.2,8.3,30.30,West,274,7.0,10.0,62,0.00,,,0.00,Wunderground v.1.15,2013-01-20 21:55:00,
2013-01-20 16:00:00,19.0,7.7,30.30,NW,308,7.0,9.0,61,0.00,,,0.00,Wunderground v.1.15,2013-01-20 22:00:00,
2013-01-20 16:10:00,18.6,8.1,30.30,West,281,7.0,7.0,63,0.00,,,0.00,Wunderground v.1.15,2013-01-20 22:10:00,
2013-01-20 16:15:00,18.6,8.4,30.30,West,270,7.0,7.0,64,0.00,,,0.00,Wunderground v.1.15,2013-01-20 22:15:00,
2013-01-20 16:25:00,18.5,8.3,30.30,WNW,289,7.0,8.0,64,0.00,,,0.00,Wunderground v.1.15,2013-01-20 22:25:00,
2013-01-20 16:35:00,18.3,8.5,30.30,West,262,6.0,8.0,65,0.00,,,0.00,Wunderground v.1.15,2013-01-20 22:35:00,
2013-01-20 16:45:00,18.0,8.2,30.30,WNW,286,6.0,9.0,65,0.00,,,0.00,Wunderground v.1.15,2013-01-20 22:45:00,
2013-01-20 16:50:00,17.9,8.1,30.30,West,273,6.0,6.0,65,0.00,,,0.00,Wunderground v.1.15,2013-01-20 22:50:00,
2013-01-20 17:00:00,17.9,8.5,30.30,NW,305,5.0,6.0,66,0.00,,,0.00,Wunderground v.1.15,2013-01-20 23:00:00,
2013-01-20 17:05:00,17.8,8.4,30.30,West,264,7.0,7.0,66,0.00,,,0.00,Wunderground v.1.15,2013-01-20 23:05:00,
2013-01-20 17:15:00,17.7,7.9,30.30,WNW,291,7.0,11.0,65,0.00,,,0.00,Wunderground v.1.15,2013-01-20 23:15:00,
2013-01-20 17:20:00,17.6,7.8,30.30,West,281,8.0,8.0,65,0.00,,,0.00,Wunderground v.1.15,2013-01-20 23:20:00,
2013-01-20 17:30:00,17.5,8.1,30.30,WNW,298,7.0,7.0,66,0.00,,,0.00,Wunderground v.1.15,2013-01-20 23:30:00,
2013-01-20 17:40:00,17.4,7.6,30.30,WNW,302,7.0,9.0,65,0.00,,,0.00,Wunderground v.1.15,2013-01-20 23:40:00,
2013-01-20 17:50:00,17.2,7.8,30.30,NW,308,8.0,9.0,66,0.00,,,0.00,Wunderground v.1.15,2013-01-20 23:50:00,
2013-01-20 18:00:00,17.1,7.7,30.30,WNW,287,7.0,8.0,66,0.00,,,0.00,Wunderground v.1.15,2013-01-21 00:00:00,
2013-01-20 18:10:00,17.1,8.0,30.30,West,277,5.0,5.0,67,0.00,,,0.00,Wunderground v.1.15,2013-01-21 00:10:00,
2013-01-20 18:20:00,17.0,7.9,30.30,WNW,291,6.0,6.0,67,0.00,,,0.00,Wunderground v.1.15,2013-01-21 00:20:00,
2013-01-20 18:30:00,17.0,8.3,30.30,WSW,257,6.0,6.0,68,0.00,,,0.00,Wunderground v.1.15,2013-01-21 00:30:00,
2013-01-20 18:40:00,16.9,8.5,30.30,West,264,6.0,8.0,69,0.00,,,0.00,Wunderground v.1.15,2013-01-21 00:40:00,
2013-01-20 18:45:00,16.9,8.8,30.30,WSW,255,6.0,8.0,70,0.00,,,0.00,Wunderground v.1.15,2013-01-21 00:45:00,
2013-01-20 18:55:00,16.7,8.3,30.30,West,273,7.0,10.0,69,0.00,,,0.00,Wunderground v.1.15,2013-01-21 00:55:00,
2013-01-20 19:00:00,16.7,8.6,30.30,West,270,6.0,6.0,70,0.00,,,0.00,Wunderground v.1.15,2013-01-21 01:00:00,
2013-01-20 19:10:00,16.6,8.5,30.30,WNW,290,5.0,8.0,70,0.00,,,0.00,Wunderground v.1.15,2013-01-21 01:10:00,
2013-01-20 19:20:00,16.5,8.4,30.30,West,274,5.0,5.0,70,0.00,,,0.00,Wunderground v.1.15,2013-01-21 01:20:00,
2013-01-20 19:25:00,16.5,8.4,30.30,WNW,287,5.0,5.0,70,0.00,,,0.00,Wunderground v.1.15,2013-01-21 01:25:00,
2013-01-20 19:35:00,16.4,8.3,30.30,West,276,5.0,6.0,70,0.00,,,0.00,Wunderground v.1.15,2013-01-21 01:35:00,
2013-01-20 19:40:00,16.3,8.2,30.30,West,277,6.0,9.0,70,0.00,,,0.00,Wunderground v.1.15,2013-01-21 01:40:00,
2013-01-20 19:50:00,16.3,8.5,30.30,WNW,288,6.0,7.0,71,0.00,,,0.00,Wunderground v.1.15,2013-01-21 01:50:00,
2013-01-20 19:55:00,16.3,8.9,30.30,West,267,6.0,7.0,72,0.00,,,0.00,Wunderground v.1.15,2013-01-21 01:55:00,
2013-01-20 20:00:00,16.3,8.9,30.30,West,278,7.0,9.0,72,0.00,,,0.00,Wunderground v.1.15,2013-01-21 02:00:00,
2013-01-20 20:10:00,16.2,9.1,30.29,West,277,7.0,7.0,73,0.00,,,0.00,Wunderground v.1.15,2013-01-21 02:10:00,
2013-01-20 20:15:00,16.2,9.1,30.29,West,266,6.0,7.0,73,0.00,,,0.00,Wunderground v.1.15,2013-01-21 02:15:00,
2013-01-20 20:25:00,16.1,9.6,30.29,WNW,283,5.0,5.0,75,0.00,,,0.00,Wunderground v.1.15,2013-01-21 02:25:00,
2013-01-20 20:30:00,16.1,9.6,30.29,West,269,5.0,5.0,75,0.00,,,0.00,Wunderground v.1.15,2013-01-21 02:30:00,
2013-01-20 20:40:00,16.1,9.6,30.28,West,281,6.0,6.0,75,0.00,,,0.00,Wunderground v.1.15,2013-01-21 02:40:00,
2013-01-20 20:45:00,16.0,9.5,30.29,West,277,5.0,6.0,75,0.00,,,0.00,Wunderground v.1.15,2013-01-21 02:45:00,
2013-01-20 20:55:00,16.0,9.8,30.29,West,280,5.0,5.0,76,0.00,,,0.00,Wunderground v.1.15,2013-01-21 02:55:00,
2013-01-20 21:00:00,16.0,9.8,30.28,West,263,5.0,5.0,76,0.00,,,0.00,Wunderground v.1.15,2013-01-21 03:00:00,
2013-01-20 21:05:00,16.0,10.1,30.28,WNW,284,5.0,6.0,77,0.00,,,0.00,Wunderground v.1.15,2013-01-21 03:05:00,
2013-01-20 21:15:00,15.9,10.0,30.28,West,266,5.0,5.0,77,0.00,,,0.00,Wunderground v.1.15,2013-01-21 03:15:00,
2013-01-20 21:20:00,15.8,10.2,30.28,WNW,285,6.0,8.0,78,0.00,,,0.00,Wunderground v.1.15,2013-01-21 03:20:00,
2013-01-20 21:30:00,15.8,10.2,30.28,WSW,243,5.0,5.0,78,0.00,,,0.00,Wunderground v.1.15,2013-01-21 03:30:00,
2013-01-20 21:35:00,15.6,9.7,30.28,SW,236,6.0,12.0,77,0.00,,,0.00,Wunderground v.1.15,2013-01-21 03:35:00,
2013-01-20 21:45:00,15.5,9.3,30.28,West,280,7.0,7.0,76,0.00,,,0.00,Wunderground v.1.15,2013-01-21 03:45:00,
2013-01-20 21:55:00,15.4,9.2,30.28,West,281,6.0,6.0,76,0.00,,,0.00,Wunderground v.1.15,2013-01-21 03:55:00,
2013-01-20 22:05:00,15.2,9.0,30.28,WNW,295,6.0,6.0,76,0.00,,,0.00,Wunderground v.1.15,2013-01-21 04:05:00,
2013-01-20 22:10:00,15.2,9.0,30.28,West,278,6.0,9.0,76,0.00,,,0.00,Wunderground v.1.15,2013-01-21 04:10:00,
2013-01-20 22:20:00,15.0,8.8,30.27,West,278,7.0,7.0,76,0.00,,,0.00,Wunderground v.1.15,2013-01-21 04:20:00,
2013-01-20 22:30:00,14.6,8.4,30.27,West,271,6.0,6.0,76,0.00,,,0.00,Wunderground v.1.15,2013-01-21 04:30:00,
2013-01-20 22:35:00,14.5,8.6,30.27,West,269,6.0,7.0,77,0.00,,,0.00,Wunderground v.1.15,2013-01-21 04:35:00,
2013-01-20 22:45:00,14.4,8.5,30.27,WSW,256,6.0,6.0,77,0.00,,,0.00,Wunderground v.1.15,2013-01-21 04:45:00,
2013-01-20 22:50:00,14.4,8.8,30.27,West,266,6.0,6.0,78,0.00,,,0.00,Wunderground v.1.15,2013-01-21 04:50:00,
2013-01-20 23:00:00,14.5,8.6,30.27,WNW,283,6.0,8.0,77,0.00,,,0.00,Wunderground v.1.15,2013-01-21 05:00:00,
2013-01-20 23:10:00,14.1,8.2,30.27,West,266,5.0,6.0,77,0.00,,,0.00,Wunderground v.1.15,2013-01-21 05:10:00,
2013-01-20 23:15:00,13.9,8.0,30.27,West,277,5.0,6.0,77,0.00,,,0.00,Wunderground v.1.15,2013-01-21 05:15:00,
2013-01-20 23:25:00,13.6,8.0,30.27,West,281,5.0,6.0,78,0.00,,,0.00,Wunderground v.1.15,2013-01-21 05:25:00,
2013-01-20 23:30:00,13.6,8.0,30.27,West,264,5.0,5.0,78,0.00,,,0.00,Wunderground v.1.15,2013-01-21 05:30:00,
2013-01-20 23:40:00,13.7,8.1,30.27,West,274,6.0,6.0,78,0.00,,,0.00,Wunderground v.1.15,2013-01-21 05:40:00,
2013-01-20 23:50:00,13.3,6.9,30.26,West,266,8.0,9.0,75,0.00,,,0.00,Wunderground v.1.15,2013-01-21 05:50:00,
2013-01-20 23:55:00,13.2,6.8,30.26,WNW,282,8.0,9.0,75,0.00,,,0.00,Wunderground v.1.15,2013-01-21 05:55:00,